Latest Weather Observations for Richmond

IDN60901

Issued at 3:51 am EDT Wednesday 1 March 2017 (issued every 10 minutes, with the page automatically refreshed every 10 minutes)

About weather observations | Map of Sydney area stations | Latest observations for Sydney area | Other Formats
Station Details ID: 067105 Name: RICHMOND RAAF Lat: -33.60 Lon: 150.78 Height: 19.0 m
Data from the previous 72 hours. | See also: Recent months at Richmond
Date/Time
EDT
Temp
°C
App
Temp
°C
Dew
Point
°C
Rel
Hum
%
Delta-T
°C
Wind Press
QNH
hPa
Press
MSL
hPa
Rain since
9am
mm
Dir  Spd
km/h
Gust
km/h
Spd
kts
Gust
kts
01/03:30am 20.2 20.8 19.5 96 0.4 SSW 15 22 8 12 1019.8 1019.7 5.8
01/03:00am 20.6 21.6 19.4 93 0.8 SSW 13 19 7 10 1020.1 1020.0 4.8
01/02:30am 20.4 21.3 19.2 93 0.8 SSW 13 17 7 9 1020.4 1020.3 4.8
01/02:00am 20.5 21.8 19.3 93 0.8 SSW 11 15 6 8 1020.7 1020.6 4.8
01/01:30am 20.3 21.6 19.3 94 0.6 SSW 11 17 6 9 1020.7 1020.6 4.8
01/01:00am 20.4 21.8 19.6 95 0.5 SSW 11 13 6 7 1021.2 1021.1 4.8
01/12:30am 20.6 21.8 19.8 95 0.5 SW 13 19 7 10 1021.4 1021.3 4.8
01/12:00am 20.7 22.2 19.7 94 0.6 SSW 11 13 6 7 1021.6 1021.5 4.2
 
Date/Time
EDT
Temp
°C
App
Temp
°C
Dew
Point
°C
Rel
Hum
%
Delta-T
°C
Wind Press
QNH
hPa
Press
MSL
hPa
Rain since
9am
mm
Dir  Spd
km/h
Gust
km/h
Spd
kts
Gust
kts
28/11:30pm 20.4 21.8 19.6 95 0.5 SW 11 15 6 8 1021.8 1021.7 4.2
28/11:00pm 20.5 22.4 19.8 96 0.4 SW 9 11 5 6 1022.0 1021.9 4.2
28/10:30pm 20.7 22.7 19.9 95 0.5 SW 9 13 5 7 1022.2 1022.1 4.2
28/10:00pm 20.8 22.8 20.0 95 0.5 SW 9 11 5 6 1022.3 1022.2 4.2
28/09:30pm 20.8 22.8 20.0 95 0.5 SW 9 9 5 5 1022.5 1022.4 4.2
28/09:00pm 20.3 22.1 19.6 96 0.4 SW 9 11 5 6 1022.3 1022.2 4.2
28/08:30pm 20.5 22.3 19.5 94 0.6 SW 9 13 5 7 1022.0 1021.9 4.2
28/08:00pm 21.1 23.3 19.7 92 0.9 SW 7 9 4 5 1022.0 1021.9 4.2
28/07:30pm 21.5 23.5 20.0 91 1.0 SW 9 13 5 7 1021.7 1021.6 4.2
28/07:00pm 22.5 24.6 20.2 87 1.5 SSW 9 13 5 7 1021.4 1021.3 4.2
28/06:30pm 22.6 24.6 19.9 85 1.7 SSW 9 11 5 6 1021.1 1021.0 4.2
28/06:00pm 22.7 24.1 18.7 78 2.5 SSE 9 15 5 8 1020.9 1020.8 4.2
28/05:30pm 24.2 25.7 18.8 72 3.4 SSW 9 22 5 12 1020.9 1020.8 4.2
28/05:00pm 24.2 26.9 21.3 84 1.9 W 9 13 5 7 1020.7 1020.6 4.2
28/04:30pm 22.9 24.1 20.6 87 1.5 WNW 15 17 8 9 1020.7 1020.6 4.2
28/04:00pm 23.3 25.2 20.6 85 1.8 W 11 19 6 10 1020.9 1020.8 4.2
28/03:30pm 22.3 23.6 20.9 92 0.9 SW 15 19 8 10 1020.8 1020.7 4.2
28/03:00pm 23.0 24.1 19.6 81 2.2 WSW 13 19 7 10 1021.1 1021.0 3.6
28/02:30pm 23.6 26.1 19.9 80 2.4 NW 6 11 3 6 1021.3 1021.2 3.6
28/02:00pm 24.5 26.4 18.9 71 3.6 N 7 15 4 8 1021.7 1021.6 3.4
28/01:30pm 23.3 26.1 19.7 80 2.3 NNE 4 7 2 4 1022.0 1021.9 3.2
28/01:00pm 22.2 24.2 19.9 87 1.5 ENE 9 15 5 8 1022.1 1022.0 3.2
28/12:30pm 23.6 25.2 19.1 76 2.9 ENE 9 13 5 7 1022.1 1022.0 2.6
28/12:00pm 23.5 25.1 19.2 77 2.7 ENE 9 11 5 6 1022.4 1022.3 2.6
28/11:30am 22.5 24.5 20.0 86 1.6 SE 9 13 5 7 1022.8 1022.7 2.6
28/11:00am 23.3 25.1 19.5 79 2.4 NE 9 13 5 7 1022.9 1022.8 1.0
28/10:30am 24.5 27.0 19.8 75 3.0 E 6 7 3 4 1022.9 1022.8 1.0
28/10:00am 23.2 26.8 20.5 85 1.7 S 2 11 1 6 1022.9 1022.8 1.0
28/09:48am 22.5 26.2 20.0 86 1.6 CALM 0 0 0 0 1023.0 1022.9 1.0
28/09:32am 22.1 25.8 20.0 88 1.3 CALM 0 0 0 0 1023.0 1022.9 0.6
28/09:30am 21.9 25.4 19.6 87 1.5 CALM 0 0 0 0 1023.0 1022.9 0.2
28/09:00am 21.9 24.3 19.6 87 1.5 S 6 11 3 6 1022.9 1022.8 0.4
28/08:30am 20.9 23.5 19.2 90 1.1 SSW 4 7 2 4 1023.0 1022.9 0.4
28/08:00am 20.0 22.9 19.0 94 0.6 S 2 9 1 5 1022.8 1022.7 0.4
28/07:30am 19.7 23.0 19.2 97 0.3 CALM 0 0 0 0 1022.5 1022.4 0.4
28/07:00am 19.1 21.0 18.6 97 0.3 SSW 6 9 3 5 1022.1 1022.0 0.4
28/06:30am 19.4 21.4 18.7 96 0.4 SW 6 7 3 4 1021.8 1021.7 0.4
28/06:00am 19.4 22.0 18.4 94 0.6 S 2 6 1 3 1021.8 1021.7 0.4
28/05:30am 19.4 21.1 18.6 95 0.5 SW 7 9 4 5 1021.6 1021.5 0.4
28/05:09am 19.4 22.3 18.2 93 0.7 CALM 0 6 0 3 1021.6 1021.5 0.2
28/05:00am 19.4 21.9 18.2 93 0.7 NE 2 6 1 3 1021.6 1021.5 0.2
28/04:53am 19.3 21.8 18.1 93 0.7 NE 2 7 1 4 1021.6 1021.5 0.2
28/04:30am 19.3 20.9 18.3 94 0.6 S 7 11 4 6 1021.3 1021.2 0.2
28/04:00am 19.2 20.7 18.0 93 0.7 SSW 7 13 4 7 1021.3 1021.2 0.2
28/03:30am 18.8 19.8 17.8 94 0.6 SW 9 13 5 7 1021.6 1021.5 0.2
28/03:00am 19.1 19.3 17.6 91 0.9 SSW 13 20 7 11 1021.8 1021.7 0.2
28/02:30am 19.4 19.7 17.0 86 1.5 SSW 11 17 6 9 1022.1 1022.0 0.2
28/02:00am 19.8 19.6 16.6 82 1.9 SSW 13 22 7 12 1022.4 1022.3 0.2
28/01:30am 19.5 20.2 16.2 81 2.0 SSW 7 11 4 6 1022.7 1022.6 0.2
28/01:00am 19.8 20.2 16.3 80 2.1 SSW 9 13 5 7 1023.0 1022.9 0.2
28/12:30am 20.5 20.1 16.3 77 2.5 SSW 13 19 7 10 1023.1 1023.0 0.2
28/12:00am 20.7 20.3 16.3 76 2.6 S 13 17 7 9 1023.2 1023.1 0.2
 
Date/Time
EDT
Temp
°C
App
Temp
°C
Dew
Point
°C
Rel
Hum
%
Delta-T
°C
Wind Press
QNH
hPa
Press
MSL
hPa
Rain since
9am
mm
Dir  Spd
km/h
Gust
km/h
Spd
kts
Gust
kts
27/11:30pm 20.9 20.1 16.1 74 2.9 S 15 20 8 11 1023.2 1023.1 0.2
27/11:00pm 21.2 20.9 16.4 74 2.9 SSW 13 17 7 9 1023.5 1023.4 0.2
27/10:30pm 21.0 21.4 16.2 74 2.9 SSW 9 15 5 8 1023.4 1023.3 0.2
27/10:00pm 21.0 21.8 16.4 75 2.8 S 7 11 4 6 1023.5 1023.4 0.2
27/09:30pm 21.1 21.4 16.1 73 3.0 SSW 9 15 5 8 1023.4 1023.3 0.2
27/09:00pm 21.8 21.2 15.6 68 3.7 S 13 17 7 9 1023.3 1023.2 0.2
27/08:30pm 22.0 22.1 15.4 66 3.9 SSE 9 17 5 9 1022.9 1022.8 0.2
27/08:00pm 22.8 21.5 14.9 61 4.7 SSE 15 19 8 10 1022.6 1022.5 0.2
27/07:30pm 23.5 21.3 14.5 57 5.3 SSE 19 28 10 15 1022.4 1022.3 0.2
27/07:00pm 24.6 21.8 14.4 53 6.0 SSE 22 30 12 16 1022.2 1022.1 0.2
27/06:30pm 25.4 22.7 14.5 51 6.5 SSE 22 30 12 16 1021.9 1021.8 0.2
27/06:00pm 25.9 22.8 14.4 49 6.8 SSE 24 32 13 17 1021.9 1021.8 0.2
27/05:30pm 26.8 23.3 14.5 46 7.4 SE 26 37 14 20 1021.7 1021.6 0.2
27/05:00pm 27.0 23.2 13.7 44 7.9 SE 26 37 14 20 1021.7 1021.6 0.2
27/04:30pm 27.1 23.1 14.1 44 7.8 SE 28 39 15 21 1021.8 1021.7 0.2
27/04:00pm 27.2 23.6 15.2 47 7.3 SE 28 43 15 23 1021.6 1021.5 0.2
27/03:30pm 26.6 22.7 14.4 47 7.3 SE 28 41 15 22 1021.9 1021.8 0.2
27/03:00pm 27.8 24.4 14.8 45 7.8 SE 26 37 14 20 1022.1 1022.0 0.2
27/02:30pm 27.3 24.3 14.7 46 7.6 SE 24 37 13 20 1022.3 1022.2 0.2
27/02:00pm 27.3 24.0 15.0 47 7.4 ESE 26 39 14 21 1022.7 1022.6 0.2
27/01:30pm 27.7 25.0 16.6 50 6.9 SE 26 35 14 19 1022.7 1022.6 0.2
27/01:00pm 26.5 24.1 15.5 50 6.7 SE 22 39 12 21 1023.1 1023.0 0.2
27/12:30pm 26.6 24.2 16.5 54 6.2 SE 24 33 13 18 1023.3 1023.2 0.2
27/12:00pm 25.8 23.3 16.1 55 5.9 ESE 24 32 13 17 1023.6 1023.5 0.2
27/11:30am 25.6 23.7 16.7 58 5.5 SE 22 30 12 16 1024.0 1023.9 0.0
27/11:00am 25.4 23.5 16.8 59 5.3 SE 22 30 12 16 1024.1 1024.0 0.0
27/10:30am 24.0 23.5 17.7 68 3.9 SE 17 22 9 12 1024.4 1024.3 0.0
27/10:00am 23.7 24.2 18.4 72 3.3 SSE 13 20 7 11 1024.5 1024.4 0.0
27/09:30am 22.5 24.1 19.1 81 2.2 SSW 9 13 5 7 1024.3 1024.2 0.0
27/09:00am 20.7 22.0 18.5 87 1.4 SSW 9 11 5 6 1024.2 1024.1 2.8
27/08:30am 19.7 21.0 18.5 93 0.7 SSW 9 13 5 7 1024.0 1023.9 2.8
27/08:00am 18.4 19.9 18.1 98 0.2 SSW 7 9 4 5 1023.7 1023.6 2.8
27/07:30am 17.9 19.3 17.7 99 0.1 SW 7 9 4 5 1023.3 1023.2 2.8
27/07:00am 17.6 18.4 17.4 99 0.1 SW 9 11 5 6 1022.9 1022.8 2.8
27/06:30am 17.3 18.4 17.1 99 0.1 WSW 7 11 4 6 1022.7 1022.6 2.8
27/06:00am 17.1 18.1 16.8 98 0.2 WSW 7 9 4 5 1022.6 1022.5 2.8
27/05:31am 17.1 18.1 16.8 98 0.2 W 7 9 4 5 1022.4 1022.3 2.8
27/05:30am 17.2 18.2 16.9 98 0.2 W 7 9 4 5 1022.4 1022.3 2.8
27/05:03am 17.4 17.7 17.1 98 0.2 WSW 11 15 6 8 1022.3 1022.2 2.8
27/05:00am 17.4 18.5 17.1 98 0.2 WSW 7 15 4 8 1022.3 1022.2 2.8
27/04:54am 17.3 18.6 17.0 98 0.2 WSW 6 11 3 6 1022.2 1022.1 2.8
27/04:30am 17.1 18.1 16.9 99 0.1 SW 7 15 4 8 1022.0 1021.9 2.8
27/04:08am 17.0 17.9 16.7 98 0.2 SSW 7 11 4 6 1022.1 1022.0 2.8
27/04:00am 17.0 17.6 16.7 98 0.2 SW 9 15 5 8 1022.0 1021.9 2.8
27/03:32am 17.1 17.2 16.5 96 0.4 SW 11 15 6 8 1022.2 1022.1 1.4
27/03:31am 17.1 17.2 16.5 96 0.4 SW 11 15 6 8 1022.2 1022.1 1.4
27/03:30am 17.2 17.3 16.6 96 0.4 SW 11 15 6 8 1022.2 1022.1 1.4
27/03:00am 17.2 17.2 16.2 94 0.6 SW 11 13 6 7 1022.4 1022.3 1.0
27/02:30am 17.9 18.5 15.7 87 1.3 WSW 7 11 4 6 1022.5 1022.4 0.2
27/02:00am 18.4 18.4 15.3 82 1.8 SW 9 13 5 7 1022.8 1022.7 0.2
27/01:30am 18.6 17.3 14.7 78 2.3 SSW 15 19 8 10 1022.9 1022.8 0.2
27/01:00am 18.6 17.3 14.7 78 2.3 S 15 20 8 11 1023.1 1023.0 0.2
27/12:30am 18.4 17.6 14.1 76 2.5 SSW 11 20 6 11 1023.2 1023.1 0.2
27/12:00am 19.6 18.2 13.3 67 3.6 SW 13 19 7 10 1022.9 1022.8 0.2
 
Date/Time
EDT
Temp
°C
App
Temp
°C
Dew
Point
°C
Rel
Hum
%
Delta-T
°C
Wind Press
QNH
hPa
Press
MSL
hPa
Rain since
9am
mm
Dir  Spd
km/h
Gust
km/h
Spd
kts
Gust
kts
26/11:30pm 19.8 18.4 13.3 66 3.7 SW 13 15 7 8 1023.2 1023.1 0.2
26/11:00pm 20.0 19.0 13.5 66 3.7 SW 11 15 6 8 1023.4 1023.3 0.2
26/10:30pm 20.0 19.1 13.7 67 3.6 SW 11 15 6 8 1023.5 1023.4 0.2
26/10:00pm 20.2 18.8 13.4 65 3.9 SW 13 19 7 10 1023.4 1023.3 0.2
26/09:30pm 20.2 19.3 13.6 66 3.8 SW 11 13 6 7 1023.4 1023.3 0.2
26/09:00pm 20.6 19.1 13.1 62 4.3 SSW 13 17 7 9 1022.9 1022.8 0.2
26/08:30pm 20.7 19.4 12.4 59 4.7 S 11 15 6 8 1022.6 1022.5 0.2
26/08:00pm 20.9 18.4 12.3 58 4.8 SSE 17 24 9 13 1022.2 1022.1 0.2
26/07:30pm 21.6 18.0 11.9 54 5.4 SE 22 30 12 16 1022.0 1021.9 0.2
26/07:00pm 22.1 18.2 12.1 53 5.6 SE 24 33 13 18 1021.9 1021.8 0.2
26/06:30pm 22.8 19.5 11.5 49 6.3 SSE 20 32 11 17 1021.5 1021.4 0.2
26/06:00pm 23.1 20.0 12.1 50 6.2 SSE 20 30 11 16 1021.2 1021.1 0.2
26/05:30pm 24.2 21.4 13.1 50 6.4 SSE 20 28 11 15 1021.0 1020.9 0.2
26/05:00pm 24.7 21.6 13.3 49 6.6 SSE 22 28 12 15 1021.0 1020.9 0.2
26/04:30pm 24.3 21.5 13.2 50 6.4 SSE 20 26 11 14 1021.0 1020.9 0.2
26/04:00pm 24.3 21.4 12.9 49 6.6 SSE 20 28 11 15 1021.1 1021.0 0.2
26/03:30pm 24.7 22.2 14.2 52 6.2 S 20 28 11 15 1021.2 1021.1 0.2
26/03:00pm 24.9 21.7 13.1 48 6.8 SE 22 30 12 16 1021.6 1021.5 0.2
26/02:30pm 26.0 23.5 14.1 47 7.1 SSE 20 28 11 15 1021.7 1021.6 0.2
26/02:00pm 25.5 22.5 13.7 48 6.9 S 22 35 12 19 1021.9 1021.8 0.2
26/01:30pm 24.8 22.5 14.0 51 6.4 SSE 19 32 10 17 1022.2 1022.1 0.2
26/01:00pm 24.4 22.0 15.3 57 5.5 S 22 32 12 17 1022.6 1022.5 0.2
26/12:30pm 22.5 20.4 15.1 63 4.4 S 20 30 11 16 1022.9 1022.8 0.2
26/12:00pm 22.4 21.6 16.0 67 3.8 S 15 24 8 13 1023.1 1023.0 0.2
26/11:30am 21.0 20.8 16.8 77 2.6 SSW 13 17 7 9 1023.3 1023.2 0.2
26/11:00am 20.6 19.6 16.6 78 2.4 SW 17 24 9 13 1023.3 1023.2 0.0
26/10:30am 21.5 21.5 17.3 77 2.6 SW 13 17 7 9 1023.2 1023.1 0.0
26/10:00am 20.6 20.2 17.2 81 2.1 SW 15 20 8 11 1023.1 1023.0 0.0
26/09:30am 20.0 19.6 17.2 84 1.7 SW 15 19 8 10 1022.7 1022.6 0.0
26/09:00am 19.3 20.0 18.0 92 0.8 WSW 11 15 6 8 1022.5 1022.4 10.4
26/08:30am 18.5 19.1 17.7 95 0.5 WSW 11 17 6 9 1022.2 1022.1 10.4
26/08:00am 18.2 18.9 17.9 98 0.2 WSW 11 15 6 8 1021.9 1021.8 10.4
26/07:30am 17.9 17.7 17.7 99 0.1 SW 15 20 8 11 1021.5 1021.4 10.4
26/07:00am 17.9 18.5 17.7 99 0.1 SW 11 15 6 8 1021.2 1021.1 10.0
26/06:30am 17.8 17.6 17.6 99 0.1 SSW 15 19 8 10 1021.1 1021.0 10.0
26/06:00am 17.7 19.2 17.5 99 0.1 SSW 6 9 3 5 1021.0 1020.9 9.8
26/05:46am 17.7 19.0 17.5 99 0.1 S 7 9 4 5 1020.8 1020.7 9.2
26/05:30am 17.7 18.2 17.5 99 0.1 SW 11 13 6 7 1020.5 1020.4 9.0
26/05:06am 17.4 18.2 17.2 99 0.1 SW 9 13 5 7 1020.4 1020.3 8.4
26/05:00am 17.2 17.5 17.0 99 0.1 SW 11 13 6 7 1020.4 1020.3 8.4
26/04:30am 17.3 16.8 17.0 98 0.2 S 15 20 8 11 1020.3 1020.2 6.4
26/04:19am 17.2 15.9 16.9 98 0.2 S 19 30 10 16 1020.0 1019.9 6.0
26/04:16am 17.1 15.5 16.6 97 0.3 S 20 33 11 18 1020.0 1019.9 6.0
26/04:00am 17.4 14.5 17.1 98 0.2 SSE 28 39 15 21 1020.1 1020.0 5.2

Latest Capital City Observations: Canberra | Sydney | Melbourne | Brisbane | Adelaide | Perth | Hobart | Darwin

Other Formats:

Comma delimited format used in spreadsheet applications
http://www.bom.gov.au/fwo/IDN60901/IDN60901.95753.axf

JavaScript Object Notation format (JSON) in row-major order
http://www.bom.gov.au/fwo/IDN60901/IDN60901.95753.json